CYSC

Sherbrooke Airport

Sherbrooke, , Canada
METAR CYSC 251400Z AUTO 13012KT 9SM CLR 10/02 A3042 RMK SLP309
Observed Flight Rules
Sep-25 @ 14:00 UTC (an hour ago) Visual Flight Rules
Wind Visibility Clouds
130° at 12 knots 9 miles
  • Clear skies
Temperatures Readings
Current 10°C / 50°F
Dewpoint 2°C / 36°F
Humidity 58%
Altimeter 30.42" Hg
Pressure 1030.9 hPa
Elevation 241
METAR CYSC 251400Z AUTO 13012KT 9SM CLR 10/02 A3042 RMK SLP309
Observed Flight Rules
Sep-25 @ 14:00 UTC
(an hour ago)
VFR
Wind Visibility
130° at 12 knots 9 miles
Clouds
  • Clear skies
Temperature Dewpoint
10°C / 50°F 2°C / 36°F
Humidity Altimeter Pressure
58% 30.42" Hg 1030.9 hPa